Time;durP1;ratioP1;P1;durP2;ratioP2;P2;SDS_P1;SDS_P2;PMS_P1;PMS_P2;Temp;Humidity;BMP_temperature;BMP_pressure;BME280_temperature;BME280_humidity;BME280_pressure;Samples;Min_cycle;Max_cycle;Signal;HPM_P1;HPM_P2
2021/01/26 00:00:55;;;;;;;21.10;14.13;;;1.70;99.90;;;;;;4855192;29;20070;-86
2021/01/26 00:03:21;;;;;;;23.70;14.02;;;1.70;99.90;;;;;;4864691;29;20120;-87
2021/01/26 00:05:47;;;;;;;16.85;11.80;;;1.70;99.90;;;;;;4864629;29;20125;-86
2021/01/26 00:08:14;;;;;;;17.67;12.60;;;1.70;99.90;;;;;;4849531;29;20137;-85
2021/01/26 00:10:40;;;;;;;15.73;12.00;;;1.80;99.90;;;;;;4836650;29;20041;-86
2021/01/26 00:13:08;;;;;;;18.67;13.25;;;1.70;99.90;;;;;;4837689;29;20065;-85
2021/01/26 00:15:35;;;;;;;21.83;14.77;;;1.80;99.90;;;;;;4849661;29;20067;-85
2021/01/26 00:18:02;;;;;;;17.70;13.18;;;1.80;99.90;;;;;;4866277;29;20132;-85
2021/01/26 00:20:30;;;;;;;18.67;13.75;;;1.80;99.90;;;;;;4840122;29;20124;-84
2021/01/26 00:22:56;;;;;;;20.13;14.27;;;1.90;99.90;;;;;;4855620;29;20060;-86
2021/01/26 00:25:29;;;;;;;21.23;14.10;;;1.80;99.90;;;;;;4854978;29;20049;-86
2021/01/26 00:27:55;;;;;;;20.08;12.95;;;1.80;99.90;;;;;;4849961;29;20043;-84
2021/01/26 00:30:27;;;;;;;23.27;14.45;;;1.80;99.90;;;;;;4862235;29;20033;-84
2021/01/26 00:32:54;;;;;;;18.65;12.90;;;1.90;99.90;;;;;;4843884;29;20059;-86
2021/01/26 00:35:22;;;;;;;21.42;13.40;;;1.90;99.90;;;;;;4835960;29;20051;-87
2021/01/26 00:37:49;;;;;;;18.20;12.93;;;1.90;99.90;;;;;;4836059;29;20646;-87
2021/01/26 00:40:16;;;;;;;22.08;15.18;;;1.80;99.90;;;;;;4855087;29;20045;-87
2021/01/26 00:42:42;;;;;;;20.05;13.43;;;1.90;99.90;;;;;;4828118;29;20480;-87
2021/01/26 00:45:09;;;;;;;19.02;13.68;;;1.90;99.90;;;;;;4871711;29;20054;-87
2021/01/26 00:47:35;;;;;;;21.55;15.40;;;1.90;99.90;;;;;;4841490;29;20109;-87
2021/01/26 00:50:07;;;;;;;19.45;13.30;;;1.90;99.90;;;;;;4827009;29;20049;-87
2021/01/26 00:52:32;;;;;;;19.48;13.65;;;1.90;99.90;;;;;;4848946;29;20049;-88
2021/01/26 00:54:58;;;;;;;20.05;14.13;;;1.90;99.90;;;;;;4844373;29;20412;-87
2021/01/26 00:57:24;;;;;;;25.02;13.98;;;1.90;99.90;;;;;;4857930;29;20089;-85
2021/01/26 00:59:51;;;;;;;22.55;14.65;;;1.90;99.90;;;;;;4838842;29;20097;-85
2021/01/26 01:02:17;;;;;;;19.10;13.80;;;2.00;99.90;;;;;;4859965;29;20046;-86
2021/01/26 01:04:47;;;;;;;22.45;14.25;;;2.00;99.90;;;;;;4853062;29;20128;-86
2021/01/26 01:07:18;;;;;;;20.52;14.43;;;2.00;99.90;;;;;;4847204;29;20048;-85
2021/01/26 01:09:47;;;;;;;17.90;13.68;;;2.00;99.90;;;;;;4859055;29;20053;-85
2021/01/26 01:12:13;;;;;;;19.58;13.85;;;2.10;99.90;;;;;;4844858;29;20087;-86
2021/01/26 01:14:40;;;;;;;24.17;15.63;;;2.00;99.90;;;;;;4859099;29;20045;-85
2021/01/26 01:17:06;;;;;;;24.75;17.52;;;2.10;99.90;;;;;;4850454;29;20049;-86
2021/01/26 01:19:32;;;;;;;27.55;15.90;;;2.10;99.90;;;;;;4838727;29;20075;-88
2021/01/26 01:21:58;;;;;;;22.45;15.40;;;2.10;99.90;;;;;;4841934;29;20077;-86
2021/01/26 01:24:24;;;;;;;22.23;15.73;;;2.10;99.90;;;;;;4840015;29;20049;-87
2021/01/26 01:26:50;;;;;;;24.65;16.63;;;2.10;99.90;;;;;;4860808;29;20055;-86
2021/01/26 01:29:16;;;;;;;26.92;16.88;;;2.20;99.90;;;;;;4860391;29;20452;-87
2021/01/26 01:31:42;;;;;;;21.80;15.55;;;2.30;99.90;;;;;;4841338;29;20085;-86
2021/01/26 01:34:08;;;;;;;19.58;11.25;;;2.20;99.90;;;;;;4860368;29;20049;-87
2021/01/26 01:36:35;;;;;;;21.83;13.88;;;2.20;99.90;;;;;;4860177;29;20555;-88
2021/01/26 01:39:03;;;;;;;23.65;15.02;;;2.10;99.90;;;;;;4860418;29;20128;-86
2021/01/26 01:41:30;;;;;;;21.30;12.18;;;2.00;99.90;;;;;;4860209;29;20041;-86
2021/01/26 01:43:56;;;;;;;14.00;12.10;;;2.00;99.90;;;;;;4857967;29;20132;-86
2021/01/26 01:46:24;;;;;;;17.60;13.45;;;1.90;99.90;;;;;;4841906;29;20057;-86
2021/01/26 01:48:53;;;;;;;22.02;13.73;;;1.90;99.90;;;;;;4858134;29;20197;-86
2021/01/26 01:51:22;;;;;;;18.08;12.55;;;1.90;99.90;;;;;;4861064;29;20112;-86
2021/01/26 01:54:14;;;;;;;18.55;12.65;;;1.80;99.90;;;;;;4876073;29;20124;-86
2021/01/26 01:56:46;;;;;;;21.38;12.77;;;1.90;99.90;;;;;;4858551;29;20066;-86
2021/01/26 01:59:22;;;;;;;21.67;14.55;;;1.80;99.90;;;;;;4860204;29;20045;-86
2021/01/26 02:01:49;;;;;;;10.95;7.85;;;1.80;99.90;;;;;;4866076;29;20045;-87
2021/01/26 02:04:19;;;;;;;17.70;10.73;;;1.80;99.90;;;;;;4865965;29;20098;-86
2021/01/26 02:06:50;;;;;;;15.45;11.55;;;1.80;99.90;;;;;;4841342;29;20173;-85
2021/01/26 02:09:23;;;;;;;9.20;5.72;;;1.80;99.90;;;;;;4833105;29;20061;-86
2021/01/26 02:11:49;;;;;;;10.90;6.75;;;1.80;99.90;;;;;;4830262;29;20045;-86
2021/01/26 02:14:15;;;;;;;14.32;9.93;;;1.70;99.90;;;;;;4829712;29;20042;-86
2021/01/26 02:16:57;;;;;;;12.98;8.93;;;1.80;99.90;;;;;;4821774;29;20121;-86
2021/01/26 02:19:55;;;;;;;17.98;11.82;;;1.80;99.90;;;;;;4825336;29;20401;-85
2021/01/26 02:22:55;;;;;;;10.40;7.80;;;1.80;99.90;;;;;;4792529;29;20062;-85
2021/01/26 02:25:58;;;;;;;7.10;4.78;;;1.80;99.90;;;;;;4832972;29;20099;-85
2021/01/26 02:28:45;;;;;;;14.45;10.68;;;1.80;99.90;;;;;;4824642;29;20050;-86
2021/01/26 02:31:38;;;;;;;13.95;9.23;;;1.90;99.90;;;;;;4812032;29;20427;-86
2021/01/26 02:34:26;;;;;;;13.73;10.93;;;1.90;99.90;;;;;;4855638;29;20048;-85
2021/01/26 02:37:13;;;;;;;6.43;4.80;;;1.90;99.90;;;;;;4825187;29;20160;-85
2021/01/26 02:39:50;;;;;;;5.85;4.55;;;1.90;99.90;;;;;;4825916;29;20042;-89
2021/01/26 02:42:54;;;;;;;12.43;10.25;;;1.80;99.90;;;;;;4826342;29;20445;-85
2021/01/26 02:45:35;;;;;;;8.07;5.72;;;1.80;99.90;;;;;;4834653;29;20046;-86
2021/01/26 02:48:30;;;;;;;13.05;9.25;;;1.80;99.90;;;;;;4824014;29;20051;-86
2021/01/26 02:51:14;;;;;;;9.35;7.45;;;1.70;99.90;;;;;;4823462;29;20054;-84
2021/01/26 02:53:40;;;;;;;11.63;7.10;;;1.60;99.90;;;;;;4833520;29;20179;-89
2021/01/26 02:56:44;;;;;;;7.13;6.40;;;1.50;99.90;;;;;;4839798;29;20105;-85
2021/01/26 02:59:09;;;;;;;10.95;8.50;;;1.50;99.90;;;;;;4844306;29;20053;-85
2021/01/26 03:01:47;;;;;;;13.75;10.23;;;1.40;99.90;;;;;;4849195;29;20416;-85
2021/01/26 03:04:21;;;;;;;16.98;11.70;;;1.30;99.90;;;;;;4824375;29;20077;-85
2021/01/26 03:06:52;;;;;;;20.52;13.65;;;1.30;99.90;;;;;;4825664;29;20509;-85
2021/01/26 03:09:35;;;;;;;13.20;9.60;;;1.30;99.90;;;;;;4847704;29;20128;-85
2021/01/26 03:12:15;;;;;;;11.95;9.63;;;1.30;99.90;;;;;;4845514;29;20044;-85
2021/01/26 03:14:49;;;;;;;22.40;15.05;;;1.40;99.90;;;;;;4860386;29;20473;-88
2021/01/26 03:17:35;;;;;;;17.00;10.98;;;1.50;99.90;;;;;;4860852;29;20102;-85
2021/01/26 03:20:21;;;;;;;17.77;12.32;;;1.60;99.90;;;;;;4843178;29;20273;-85
2021/01/26 03:22:52;;;;;;;21.38;13.30;;;1.70;99.90;;;;;;4869038;29;20069;-85
2021/01/26 03:25:23;;;;;;;20.05;13.07;;;1.70;99.90;;;;;;4862766;29;20484;-86
2021/01/26 03:27:52;;;;;;;17.50;10.40;;;1.80;99.90;;;;;;4862825;29;20133;-85
2021/01/26 03:30:22;;;;;;;10.43;7.40;;;1.90;99.90;;;;;;4852810;29;20045;-85
2021/01/26 03:32:55;;;;;;;5.63;4.90;;;1.90;99.90;;;;;;4848847;29;20076;-85
2021/01/26 03:35:20;;;;;;;3.35;3.05;;;1.90;99.90;;;;;;4860498;29;20484;-85
2021/01/26 03:37:56;;;;;;;7.82;4.03;;;1.80;99.90;;;;;;4843460;29;20101;-85
2021/01/26 03:40:22;;;;;;;7.13;3.80;;;1.70;99.90;;;;;;4844019;29;20065;-86
2021/01/26 03:42:48;;;;;;;9.68;5.20;;;1.70;99.90;;;;;;4831055;29;20675;-86
2021/01/26 03:45:14;;;;;;;9.20;5.75;;;1.70;99.90;;;;;;4860480;29;20057;-85
2021/01/26 03:48:01;;;;;;;6.70;5.70;;;1.50;99.90;;;;;;4854940;29;20045;-85
2021/01/26 03:50:40;;;;;;;11.38;5.65;;;1.50;99.90;;;;;;4843676;29;20399;-85
2021/01/26 03:53:29;;;;;;;13.73;7.88;;;1.50;99.90;;;;;;4859692;29;20037;-84
2021/01/26 03:56:06;;;;;;;8.98;6.45;;;1.60;99.90;;;;;;4859099;29;20499;-85
2021/01/26 03:59:01;;;;;;;10.02;5.28;;;1.70;99.90;;;;;;4869411;29;20049;-86
2021/01/26 04:01:35;;;;;;;13.27;7.10;;;1.70;99.90;;;;;;4872007;29;20494;-88
2021/01/26 04:04:05;;;;;;;9.52;7.60;;;1.90;99.90;;;;;;4846099;29;20056;-86
2021/01/26 04:06:44;;;;;;;15.17;9.27;;;1.90;99.90;;;;;;4843443;29;20054;-85
2021/01/26 04:09:13;;;;;;;13.40;8.68;;;1.90;99.90;;;;;;4863202;29;20060;-85
2021/01/26 04:11:55;;;;;;;12.63;9.73;;;2.00;99.90;;;;;;4854753;29;20133;-84
2021/01/26 04:14:35;;;;;;;15.93;10.48;;;1.90;99.90;;;;;;4850713;29;20046;-85
2021/01/26 04:17:10;;;;;;;15.03;10.20;;;2.00;99.90;;;;;;4869994;29;20093;-85
2021/01/26 04:19:49;;;;;;;13.27;8.43;;;2.00;99.90;;;;;;4847771;29;20046;-85
2021/01/26 04:22:16;;;;;;;12.95;8.48;;;2.10;99.90;;;;;;4858684;29;20048;-84
2021/01/26 04:24:42;;;;;;;13.52;8.18;;;2.10;99.90;;;;;;4853319;29;20057;-84
2021/01/26 04:27:19;;;;;;;9.77;7.43;;;2.20;99.90;;;;;;4840592;29;20676;-86
2021/01/26 04:29:44;;;;;;;14.07;9.68;;;2.20;99.90;;;;;;4858356;29;20050;-85
2021/01/26 04:32:10;;;;;;;14.73;7.57;;;2.20;99.90;;;;;;4851870;29;20059;-85
2021/01/26 04:34:36;;;;;;;14.48;9.80;;;2.30;99.90;;;;;;4860065;29;20077;-84
2021/01/26 04:37:03;;;;;;;17.30;10.40;;;2.30;99.90;;;;;;4860709;29;20128;-84
2021/01/26 04:39:29;;;;;;;14.55;9.75;;;2.40;99.90;;;;;;4842648;29;20517;-84
2021/01/26 04:42:14;;;;;;;12.93;9.07;;;2.40;99.90;;;;;;4827368;29;20042;-84
2021/01/26 04:44:45;;;;;;;16.17;8.40;;;2.40;99.90;;;;;;4861419;29;20133;-85
2021/01/26 04:47:28;;;;;;;13.02;8.73;;;2.50;99.90;;;;;;4867194;29;20057;-84
2021/01/26 04:50:08;;;;;;;14.63;8.90;;;2.50;99.90;;;;;;4863714;29;20472;-85
2021/01/26 04:52:43;;;;;;;13.30;10.18;;;2.60;99.90;;;;;;4866850;29;20045;-85
2021/01/26 04:55:20;;;;;;;15.50;8.98;;;2.60;99.90;;;;;;4871612;29;20040;-85
2021/01/26 04:58:08;;;;;;;13.05;8.80;;;2.60;99.90;;;;;;4845522;29;20049;-85
2021/01/26 05:00:40;;;;;;;10.95;7.88;;;2.60;99.90;;;;;;4861290;29;20404;-84
2021/01/26 05:03:41;;;;;;;11.15;6.32;;;2.70;99.90;;;;;;4873488;29;20050;-85
2021/01/26 05:06:11;;;;;;;11.75;7.15;;;2.60;99.90;;;;;;4864975;29;20054;-85
2021/01/26 05:08:39;;;;;;;10.15;7.35;;;2.70;99.90;;;;;;4858855;29;20148;-85
2021/01/26 05:11:13;;;;;;;9.60;7.45;;;2.60;99.90;;;;;;4850517;29;20054;-86
2021/01/26 05:13:41;;;;;;;7.82;6.68;;;2.70;99.90;;;;;;4853823;29;20415;-85
2021/01/26 05:16:15;;;;;;;9.68;6.07;;;2.70;99.90;;;;;;4847664;29;20143;-85
2021/01/26 05:18:48;;;;;;;10.38;6.72;;;2.70;99.90;;;;;;4867116;29;20041;-85
2021/01/26 05:21:35;;;;;;;20.10;6.70;;;2.70;99.90;;;;;;4861134;29;20067;-85
2021/01/26 05:24:43;;;;;;;12.43;6.03;;;2.80;99.90;;;;;;4842195;29;20049;-85
2021/01/26 05:27:09;;;;;;;15.68;7.28;;;2.80;99.90;;;;;;4860299;29;20053;-85
2021/01/26 05:29:36;;;;;;;13.13;8.07;;;2.80;99.90;;;;;;4844815;29;20038;-84
2021/01/26 05:32:05;;;;;;;11.60;8.95;;;2.80;99.90;;;;;;4851884;29;20049;-84
2021/01/26 05:34:34;;;;;;;13.75;7.90;;;2.80;99.90;;;;;;4851168;29;20770;-84
2021/01/26 05:37:01;;;;;;;14.15;6.32;;;2.80;99.90;;;;;;4861988;29;20061;-86
2021/01/26 05:39:35;;;;;;;15.32;5.93;;;2.80;99.90;;;;;;4858571;29;20381;-84
2021/01/26 05:42:00;;;;;;;13.35;5.75;;;2.90;99.90;;;;;;4842069;29;20045;-85
2021/01/26 05:44:27;;;;;;;13.98;7.28;;;2.80;99.90;;;;;;4861701;29;20462;-85
2021/01/26 05:46:54;;;;;;;11.52;6.82;;;2.80;99.90;;;;;;4848705;29;20048;-89
2021/01/26 05:49:35;;;;;;;14.63;7.55;;;2.80;99.90;;;;;;4856807;29;20056;-87
2021/01/26 05:52:02;;;;;;;12.80;7.95;;;2.80;99.90;;;;;;4873395;29;20049;-85
2021/01/26 05:54:31;;;;;;;11.05;8.68;;;2.80;99.90;;;;;;4841634;29;20049;-85
2021/01/26 05:56:57;;;;;;;16.85;8.35;;;2.80;99.90;;;;;;4859638;29;20045;-85
2021/01/26 05:59:35;;;;;;;14.88;9.23;;;2.70;99.90;;;;;;4862240;29;20064;-84
2021/01/26 06:02:14;;;;;;;15.57;8.10;;;2.70;99.90;;;;;;4860140;29;20053;-86
2021/01/26 06:04:40;;;;;;;14.75;8.45;;;2.70;99.90;;;;;;4844215;29;20042;-88
2021/01/26 06:07:23;;;;;;;15.68;9.38;;;2.70;99.90;;;;;;4860869;29;20041;-85
2021/01/26 06:09:50;;;;;;;18.70;9.88;;;2.70;99.90;;;;;;4850635;29;20064;-85
2021/01/26 06:12:27;;;;;;;15.48;8.95;;;2.60;99.90;;;;;;4842188;29;20484;-86
2021/01/26 06:14:57;;;;;;;16.05;10.18;;;2.50;99.90;;;;;;4851919;29;20049;-87
2021/01/26 06:17:24;;;;;;;16.55;9.60;;;2.50;99.90;;;;;;4864928;29;20419;-86
2021/01/26 06:20:17;;;;;;;25.73;9.80;;;2.40;99.90;;;;;;4828587;29;20484;-85
2021/01/26 06:22:43;;;;;;;17.17;9.45;;;2.20;99.90;;;;;;4854572;29;20049;-86
2021/01/26 06:25:16;;;;;;;21.45;10.75;;;2.20;99.90;;;;;;4859451;29;20049;-85
2021/01/26 06:28:15;;;;;;;23.67;11.75;;;2.10;99.90;;;;;;4868662;29;20049;-86
2021/01/26 06:30:49;;;;;;;21.33;9.93;;;2.00;99.90;;;;;;4828850;29;20069;-86
2021/01/26 06:33:46;;;;;;;19.48;9.88;;;2.00;99.90;;;;;;4864973;29;20052;-85
2021/01/26 06:36:28;;;;;;;16.27;10.40;;;2.00;99.90;;;;;;4865190;29;20041;-86
2021/01/26 06:40:08;;;;;;;19.27;11.32;;;1.90;99.90;;;;;;4859481;29;20060;-86
2021/01/26 06:43:04;;;;;;;16.83;10.38;;;1.70;99.90;;;;;;4812481;29;20064;-86
2021/01/26 06:46:22;;;;;;;16.92;10.07;;;1.50;99.90;;;;;;4861041;29;20053;-86
2021/01/26 06:49:48;;;;;;;18.63;11.90;;;1.40;99.90;;;;;;4843574;29;20136;-87
2021/01/26 06:52:53;;;;;;;24.73;12.80;;;1.30;99.90;;;;;;4772814;30;20123;-86
2021/01/26 06:55:31;;;;;;;20.67;11.77;;;1.20;99.90;;;;;;4778207;29;20585;-86
2021/01/26 06:58:47;;;;;;;19.20;11.75;;;1.10;99.90;;;;;;4853532;29;20164;-86
2021/01/26 07:01:38;;;;;;;23.13;12.27;;;1.00;99.90;;;;;;4862565;29;20045;-87
2021/01/26 09:13:33;;;;;;;34.08;11.07;;;1.40;99.90;;;;;;5151676;24;20072;-86
2021/01/26 09:16:29;;;;;;;30.13;12.05;;;1.40;99.90;;;;;;4839072;29;20063;-85
2021/01/26 09:18:59;;;;;;;22.38;10.48;;;1.50;99.90;;;;;;4843186;29;20135;-87
2021/01/26 09:21:30;;;;;;;25.92;11.38;;;1.60;99.90;;;;;;4858317;29;20484;-87
2021/01/26 09:23:57;;;;;;;24.23;10.05;;;1.70;99.90;;;;;;4869463;29;20484;-86
2021/01/26 09:26:25;;;;;;;17.25;9.60;;;1.80;99.90;;;;;;4845610;29;20073;-87
2021/01/26 09:28:51;;;;;;;24.48;9.45;;;1.90;99.90;;;;;;4853783;29;20049;-87
2021/01/26 09:31:21;;;;;;;21.10;10.05;;;2.00;99.90;;;;;;4855023;29;20045;-86
2021/01/26 09:33:47;;;;;;;22.35;10.25;;;2.10;99.90;;;;;;4857089;29;20054;-87
2021/01/26 09:36:19;;;;;;;26.45;9.30;;;2.20;99.90;;;;;;4843252;29;20492;-87
2021/01/26 09:38:49;;;;;;;16.33;9.15;;;2.20;99.90;;;;;;4856357;29;20077;-87
2021/01/26 09:41:18;;;;;;;;;;;2.30;99.90;;;;;;4861150;29;20045;-86
2021/01/26 09:44:05;;;;;;;18.90;9.63;;;2.30;99.90;;;;;;4859828;29;20298;-86
2021/01/26 09:46:42;;;;;;;29.23;10.82;;;2.40;99.90;;;;;;4860837;29;20049;-86
2021/01/26 09:49:17;;;;;;;24.98;9.82;;;2.30;99.90;;;;;;4850046;29;20052;-85
2021/01/26 09:51:59;;;;;;;22.50;10.18;;;2.30;99.90;;;;;;4853619;29;20050;-87
2021/01/26 09:54:28;;;;;;;24.48;9.57;;;2.30;99.90;;;;;;4849411;29;20405;-88
2021/01/26 09:56:57;;;;;;;17.13;8.40;;;2.30;99.90;;;;;;4854109;29;20045;-85
2021/01/26 09:59:23;;;;;;;14.82;7.40;;;2.40;99.90;;;;;;4857875;29;20362;-89
2021/01/26 10:01:50;;;;;;;16.10;9.30;;;2.40;99.90;;;;;;4855741;29;20038;-89
2021/01/26 10:04:18;;;;;;;8.25;5.22;;;2.40;99.90;;;;;;4860225;29;20057;-87
2021/01/26 10:06:44;;;;;;;21.35;12.68;;;2.50;99.90;;;;;;4854822;29;20532;-89
2021/01/26 10:09:22;;;;;;;10.55;5.93;;;2.70;99.90;;;;;;4854359;29;20061;-90
2021/01/26 10:11:49;;;;;;;16.33;7.43;;;2.80;99.90;;;;;;4867585;29;20493;-90
2021/01/26 10:14:25;;;;;;;11.50;4.50;;;2.90;99.90;;;;;;4856703;29;20504;-89
2021/01/26 10:16:52;;;;;;;13.15;5.68;;;3.00;99.90;;;;;;4839318;29;20057;-89
2021/01/26 10:19:25;;;;;;;7.82;4.68;;;3.00;99.90;;;;;;4842489;29;20396;-90
2021/01/26 10:21:53;;;;;;;12.07;5.28;;;3.10;99.90;;;;;;4841373;29;20049;-87
2021/01/26 10:24:27;;;;;;;11.68;5.10;;;3.20;99.90;;;;;;4844315;29;20124;-86
2021/01/26 10:27:10;;;;;;;4.82;3.50;;;3.30;99.90;;;;;;4846193;29;20091;-88
2021/01/26 10:29:41;;;;;;;6.20;3.03;;;3.40;99.90;;;;;;4828858;29;20844;-90
2021/01/26 10:32:10;;;;;;;6.50;3.22;;;3.40;99.90;;;;;;4849544;29;20058;-90
2021/01/26 10:34:49;;;;;;;4.55;2.95;;;3.50;99.90;;;;;;4849868;29;20045;-89
2021/01/26 10:37:24;;;;;;;8.30;3.00;;;3.50;99.90;;;;;;4847025;29;20121;-87
2021/01/26 10:40:12;;;;;;;7.45;3.08;;;3.50;99.90;;;;;;4854937;29;20085;-88
2021/01/26 10:42:41;;;;;;;4.32;1.92;;;3.50;99.90;;;;;;4833704;29;20109;-88
2021/01/26 10:45:09;;;;;;;7.40;2.17;;;3.60;99.90;;;;;;4844331;29;20101;-87
2021/01/26 10:47:39;;;;;;;6.40;2.85;;;3.60;99.90;;;;;;4844005;29;20047;-87
2021/01/26 10:50:25;;;;;;;4.70;1.80;;;3.80;99.90;;;;;;4774395;29;20054;-88
2021/01/26 10:52:53;;;;;;;4.65;1.60;;;3.90;99.90;;;;;;4834203;29;20129;-86
2021/01/26 10:55:21;;;;;;;5.55;1.60;;;4.00;99.90;;;;;;4751614;29;29458;-87
2021/01/26 10:57:48;;;;;;;4.43;1.40;;;4.10;99.90;;;;;;4691857;29;21451;-87
2021/01/26 11:00:18;;;;;;;7.53;1.92;;;4.10;99.90;;;;;;4830805;29;20077;-87
2021/01/26 11:02:44;;;;;;;2.22;1.65;;;4.10;99.90;;;;;;4830050;29;20046;-87
2021/01/26 11:05:12;;;;;;;4.72;1.65;;;4.00;99.90;;;;;;4832411;29;20053;-87
2021/01/26 11:07:38;;;;;;;10.90;2.97;;;4.10;99.90;;;;;;4831317;29;20053;-86
2021/01/26 11:10:07;;;;;;;6.47;2.28;;;4.20;99.90;;;;;;4809052;29;20053;-86
2021/01/26 11:12:34;;;;;;;12.05;2.22;;;4.30;99.90;;;;;;4840650;29;20099;-86
2021/01/26 11:15:00;;;;;;;10.95;3.58;;;4.40;99.90;;;;;;4815115;29;20062;-86
2021/01/26 11:17:26;;;;;;;12.38;2.92;;;4.60;99.90;;;;;;4837545;29;20045;-85
2021/01/26 11:19:53;;;;;;;7.85;1.73;;;4.70;99.90;;;;;;4829960;29;20057;-86
2021/01/26 11:22:18;;;;;;;4.88;2.10;;;4.70;99.90;;;;;;4831119;29;20050;-87
2021/01/26 11:24:45;;;;;;;2.35;1.65;;;4.70;99.90;;;;;;4828867;29;20103;-86
2021/01/26 11:27:11;;;;;;;5.30;1.92;;;4.60;99.90;;;;;;4836655;29;20048;-87
2021/01/26 11:29:37;;;;;;;3.08;1.48;;;4.70;99.90;;;;;;4820605;29;20049;-88
2021/01/26 11:32:04;;;;;;;3.45;1.60;;;4.70;99.90;;;;;;4820888;29;20054;-86
2021/01/26 11:34:30;;;;;;;5.30;1.50;;;4.80;99.90;;;;;;4837062;29;20803;-85
2021/01/26 11:36:56;;;;;;;4.63;1.50;;;4.70;99.90;;;;;;4832721;29;20070;-87
2021/01/26 11:39:22;;;;;;;3.20;1.10;;;4.70;99.90;;;;;;4839006;29;20084;-86
2021/01/26 11:41:48;;;;;;;1.88;0.90;;;4.70;99.90;;;;;;4819767;29;20049;-86
2021/01/26 11:44:14;;;;;;;1.83;0.80;;;4.80;99.90;;;;;;4803664;29;20085;-85
2021/01/26 11:46:40;;;;;;;1.05;0.70;;;4.80;99.90;;;;;;4837269;29;20066;-86
2021/01/26 11:49:06;;;;;;;2.97;0.70;;;5.00;99.90;;;;;;4820404;29;20053;-88
2021/01/26 11:51:32;;;;;;;4.68;0.88;;;4.90;99.90;;;;;;4830101;29;20382;-87
2021/01/26 11:53:58;;;;;;;1.60;0.88;;;5.00;99.90;;;;;;4836460;29;20079;-88
2021/01/26 11:56:26;;;;;;;1.25;0.60;;;5.10;99.90;;;;;;4820729;29;20109;-90
2021/01/26 11:58:52;;;;;;;3.58;0.98;;;5.10;99.90;;;;;;4818183;29;20077;-88
2021/01/26 12:01:18;;;;;;;1.95;0.85;;;5.20;99.90;;;;;;4819043;29;20081;-90
2021/01/26 12:03:45;;;;;;;5.18;1.02;;;5.40;99.90;;;;;;4821285;29;20832;-90
2021/01/26 12:06:11;;;;;;;3.78;1.15;;;5.40;99.90;;;;;;4819074;29;20141;-87
2021/01/26 12:08:38;;;;;;;4.25;1.20;;;5.40;99.90;;;;;;4826534;29;20038;-87
2021/01/26 12:11:05;;;;;;;7.05;1.80;;;5.40;99.90;;;;;;4832379;29;20125;-87
2021/01/26 12:13:31;;;;;;;4.70;1.27;;;5.40;99.90;;;;;;4825696;29;20156;-86
2021/01/26 12:15:57;;;;;;;13.10;1.60;;;5.40;99.90;;;;;;4831853;29;20054;-86
2021/01/26 12:18:24;;;;;;;4.45;0.98;;;5.40;99.90;;;;;;4834089;29;20042;-86
2021/01/26 12:20:49;;;;;;;7.43;1.40;;;5.40;99.90;;;;;;4833548;29;20524;-85
2021/01/26 12:23:15;;;;;;;7.38;1.05;;;5.40;99.90;;;;;;4838184;29;20503;-88
2021/01/26 12:25:41;;;;;;;5.53;1.25;;;5.30;99.90;;;;;;4834700;29;20073;-88
2021/01/26 12:28:08;;;;;;;4.40;1.17;;;5.30;99.90;;;;;;4833795;29;20462;-88
2021/01/26 12:30:34;;;;;;;9.00;1.92;;;5.40;99.90;;;;;;4802712;29;20050;-85
2021/01/26 12:33:03;;;;;;;2.40;1.13;;;5.40;99.90;;;;;;4836185;29;20412;-88
2021/01/26 12:35:32;;;;;;;7.40;1.23;;;5.40;99.90;;;;;;4824867;29;20043;-87
2021/01/26 12:37:59;;;;;;;4.07;1.30;;;5.40;99.90;;;;;;4816337;29;20050;-88
2021/01/26 12:40:25;;;;;;;5.40;1.55;;;5.40;99.90;;;;;;4816334;29;20056;-86
2021/01/26 12:42:51;;;;;;;10.13;2.05;;;5.30;99.90;;;;;;4821083;29;20073;-87
2021/01/26 12:45:19;;;;;;;5.10;1.30;;;5.30;99.90;;;;;;4817500;29;20050;-87
2021/01/26 12:47:45;;;;;;;2.05;1.00;;;5.30;99.90;;;;;;4819863;29;20053;-87
2021/01/26 12:50:15;;;;;;;6.03;1.30;;;5.30;99.90;;;;;;4820413;29;20485;-87
2021/01/26 12:52:41;;;;;;;8.55;2.42;;;5.30;99.90;;;;;;4814085;29;20042;-87
2021/01/26 12:55:08;;;;;;;11.23;1.70;;;5.30;99.90;;;;;;4843876;29;20054;-87
2021/01/26 12:57:34;;;;;;;9.63;1.48;;;5.30;99.90;;;;;;4822637;29;20042;-86
2021/01/26 12:59:59;;;;;;;10.05;0.95;;;5.40;99.90;;;;;;4825888;29;20050;-88
2021/01/26 13:02:27;;;;;;;5.13;1.27;;;5.30;99.90;;;;;;4838481;29;21457;-86
2021/01/26 13:04:53;;;;;;;5.03;1.23;;;5.30;99.90;;;;;;4826974;29;20505;-87
2021/01/26 13:07:20;;;;;;;4.22;1.60;;;5.40;99.90;;;;;;4831221;29;20085;-88
2021/01/26 13:09:46;;;;;;;2.88;1.42;;;5.40;99.90;;;;;;4835310;29;20074;-88
2021/01/26 13:12:12;;;;;;;9.27;1.63;;;5.50;99.90;;;;;;4832544;29;20472;-88
2021/01/26 13:14:39;;;;;;;7.82;1.80;;;5.60;99.90;;;;;;4791132;29;20059;-87
2021/01/26 13:17:13;;;;;;;9.75;1.77;;;5.60;99.90;;;;;;4825300;29;20042;-87
2021/01/26 13:19:40;;;;;;;6.55;1.42;;;5.70;99.90;;;;;;4836283;29;20041;-86
2021/01/26 13:22:06;;;;;;;4.03;1.15;;;5.80;99.90;;;;;;4834323;29;20545;-87
2021/01/26 13:24:32;;;;;;;4.65;1.00;;;5.80;99.90;;;;;;4833210;29;20699;-87
2021/01/26 13:26:58;;;;;;;4.38;1.17;;;5.80;99.90;;;;;;4863299;29;20675;-87
2021/01/26 13:29:24;;;;;;;3.13;1.08;;;5.90;99.90;;;;;;4835796;29;20042;-87
2021/01/26 13:31:50;;;;;;;6.25;1.17;;;5.90;99.90;;;;;;4844809;29;20459;-87
2021/01/26 13:34:16;;;;;;;3.08;0.98;;;5.90;99.90;;;;;;4835821;29;20041;-87
2021/01/26 13:36:42;;;;;;;2.63;1.10;;;5.80;99.90;;;;;;4834610;29;20050;-86
2021/01/26 13:39:08;;;;;;;6.57;1.20;;;5.90;99.90;;;;;;4820190;29;20060;-88
2021/01/26 13:41:36;;;;;;;5.85;1.35;;;5.90;99.90;;;;;;4828076;29;20116;-87
2021/01/26 13:44:03;;;;;;;8.45;1.50;;;5.90;99.90;;;;;;4837423;29;20049;-87
2021/01/26 13:46:28;;;;;;;5.53;1.20;;;5.90;99.90;;;;;;4836529;29;20496;-86
2021/01/26 13:48:55;;;;;;;5.70;1.17;;;5.90;99.90;;;;;;4835385;29;20045;-87
2021/01/26 13:51:20;;;;;;;13.57;2.80;;;6.00;99.90;;;;;;4851864;29;20087;-88
2021/01/26 13:53:46;;;;;;;3.58;1.10;;;6.00;99.90;;;;;;4835801;29;20053;-87
2021/01/26 13:56:12;;;;;;;7.68;1.70;;;6.10;99.90;;;;;;4830577;29;20115;-87
2021/01/26 13:58:38;;;;;;;5.70;1.90;;;6.10;99.90;;;;;;4837562;29;20497;-87
2021/01/26 14:01:04;;;;;;;5.00;1.77;;;6.10;99.90;;;;;;4836157;29;20907;-87
2021/01/26 14:03:30;;;;;;;4.47;1.27;;;6.00;99.90;;;;;;4837775;29;20068;-87
2021/01/26 14:05:58;;;;;;;1.55;0.90;;;6.10;99.90;;;;;;4840588;29;20052;-87
2021/01/26 14:08:24;;;;;;;8.93;1.45;;;6.10;99.90;;;;;;4837998;29;20490;-87
2021/01/26 14:10:50;;;;;;;2.72;1.05;;;6.20;99.90;;;;;;4839422;29;20073;-87
2021/01/26 14:13:16;;;;;;;7.13;1.35;;;6.20;99.90;;;;;;4839713;29;20069;-86
2021/01/26 14:15:42;;;;;;;4.53;1.42;;;6.20;99.90;;;;;;4839335;29;20100;-85
2021/01/26 14:18:08;;;;;;;3.38;1.00;;;6.30;99.90;;;;;;4839714;29;20054;-87
2021/01/26 14:20:34;;;;;;;4.32;1.20;;;6.10;99.90;;;;;;4840627;29;20045;-88
2021/01/26 14:23:00;;;;;;;4.60;1.00;;;6.10;99.90;;;;;;4836578;29;20050;-86
2021/01/26 14:25:26;;;;;;;3.08;1.20;;;5.90;99.90;;;;;;4822754;29;20129;-89
2021/01/26 14:27:52;;;;;;;6.88;1.45;;;5.90;99.90;;;;;;4839047;29;20057;-88
2021/01/26 14:30:21;;;;;;;5.95;0.65;;;5.80;99.90;;;;;;4832693;29;20042;-86
2021/01/26 14:32:47;;;;;;;7.10;0.88;;;5.80;99.90;;;;;;4836135;29;20069;-85
2021/01/26 14:35:17;;;;;;;5.45;1.15;;;5.70;99.90;;;;;;4836129;29;20496;-86
2021/01/26 14:37:43;;;;;;;6.85;1.30;;;5.70;99.90;;;;;;4833452;29;20525;-85
2021/01/26 14:40:10;;;;;;;4.30;0.70;;;5.70;99.90;;;;;;4827409;29;20050;-87
2021/01/26 14:42:36;;;;;;;4.53;1.42;;;5.70;99.90;;;;;;4835449;29;20098;-86
2021/01/26 14:45:03;;;;;;;8.00;1.55;;;5.60;99.90;;;;;;4803711;29;20454;-87
2021/01/26 14:47:29;;;;;;;11.35;1.38;;;5.60;99.90;;;;;;4820072;29;20076;-86
2021/01/26 14:49:56;;;;;;;3.80;1.00;;;5.50;99.90;;;;;;4832743;29;20046;-87
2021/01/26 14:52:21;;;;;;;6.25;1.15;;;5.50;99.90;;;;;;4830337;29;20129;-87
2021/01/26 14:54:47;;;;;;;8.27;1.15;;;5.50;99.90;;;;;;4851012;29;20133;-84
2021/01/26 14:57:13;;;;;;;1.98;0.63;;;5.50;99.90;;;;;;4830979;29;20793;-88
2021/01/26 14:59:39;;;;;;;3.53;0.65;;;5.40;99.90;;;;;;4829357;29;20054;-86
2021/01/26 15:02:04;;;;;;;7.30;1.40;;;5.40;99.90;;;;;;4854835;29;20054;-86
2021/01/26 15:04:32;;;;;;;15.90;1.83;;;5.40;99.90;;;;;;4836403;29;20049;-87
2021/01/26 15:06:58;;;;;;;5.70;1.20;;;5.30;99.90;;;;;;4835609;29;20552;-87
2021/01/26 15:09:24;;;;;;;6.82;1.67;;;5.20;99.90;;;;;;4835357;29;20125;-88
2021/01/26 15:11:50;;;;;;;3.53;0.88;;;5.20;99.90;;;;;;4805305;29;20053;-84
2021/01/26 15:14:17;;;;;;;2.70;0.70;;;5.10;99.90;;;;;;4830820;29;20141;-86
2021/01/26 15:16:44;;;;;;;8.48;1.20;;;5.10;99.90;;;;;;4813989;29;20089;-86
2021/01/26 15:19:10;;;;;;;6.20;1.33;;;5.10;99.90;;;;;;4835933;29;20066;-87
2021/01/26 15:21:37;;;;;;;3.85;1.23;;;5.10;99.90;;;;;;4836605;29;20417;-85